createdAt,value
2023-05-21T00:01:08.260Z,102112.19
2023-05-21T00:03:36.460Z,102102.78
2023-05-21T00:06:04.113Z,102066.25
2023-05-21T00:08:31.142Z,102104.91
2023-05-21T00:10:58.066Z,102082.31
2023-05-21T00:13:25.152Z,102074.97
2023-05-21T00:15:52.049Z,102086.56
2023-05-21T00:18:18.741Z,102090.22
2023-05-21T00:20:45.894Z,102107.16
2023-05-21T00:23:12.834Z,102101.09
2023-05-21T00:25:39.492Z,102063.13
2023-05-21T00:28:06.553Z,102086.81
2023-05-21T00:30:33.323Z,102092.47
2023-05-21T00:33:02.487Z,102058.97
2023-05-21T00:35:29.613Z,102072.25
2023-05-21T00:37:56.429Z,102065.22
2023-05-21T00:40:23.356Z,102082.38
2023-05-21T00:42:50.303Z,102049.44
2023-05-21T00:45:17.017Z,102072.25
2023-05-21T00:47:44.989Z,102063.75
2023-05-21T00:50:12.114Z,102070.25
2023-05-21T00:52:42.145Z,102045.97
2023-05-21T00:55:10.563Z,102061.50
2023-05-21T00:57:37.709Z,102060.66
2023-05-21T01:00:09.015Z,102058.97
2023-05-21T01:02:37.636Z,102050.19
2023-05-21T01:05:07.763Z,102061.97
2023-05-21T01:07:36.496Z,102047.03
2023-05-21T01:10:06.664Z,102025.25
2023-05-21T01:12:34.511Z,102057.16
2023-05-21T01:15:04.033Z,102066.13
2023-05-21T01:17:31.873Z,102044.72
2023-05-21T01:19:59.643Z,102048.97
2023-05-21T01:22:29.248Z,101996.34
2023-05-21T01:24:55.931Z,102028.16
2023-05-21T01:27:22.985Z,102052.06
2023-05-21T01:29:49.735Z,102032.88
2023-05-21T01:32:26.953Z,102050.66
2023-05-21T01:35:08.322Z,102043.50
2023-05-21T01:37:55.304Z,102046.41
2023-05-21T01:40:35.867Z,102038.47
2023-05-21T01:43:03.897Z,102050.47
2023-05-21T01:45:32.039Z,102013.09
2023-05-21T01:47:59.449Z,102038.47
2023-05-21T01:50:27.106Z,102050.59
2023-05-21T01:52:57.027Z,101969.00
2023-05-21T01:55:24.940Z,102041.78
2023-05-21T01:57:53.548Z,102017.59
2023-05-21T02:00:24.883Z,102034.53
2023-05-21T02:02:52.028Z,102036.47
2023-05-21T02:05:19.113Z,102034.09
2023-05-21T02:07:46.282Z,102018.34
2023-05-21T02:10:13.640Z,102025.81
2023-05-21T02:12:40.373Z,102012.88
2023-05-21T02:15:07.488Z,102024.25
2023-05-21T02:17:34.264Z,102002.59
2023-05-21T02:20:11.398Z,101992.72
2023-05-21T02:22:46.391Z,102022.69
2023-05-21T02:25:15.953Z,102030.69
2023-05-21T02:27:43.465Z,101958.41
2023-05-21T02:30:15.788Z,101994.53
2023-05-21T02:32:43.769Z,102028.81
2023-05-21T02:35:12.779Z,102025.16
2023-05-21T02:37:40.562Z,102016.59
2023-05-21T02:40:09.883Z,102018.75
2023-05-21T02:42:39.610Z,102000.13
2023-05-21T02:45:10.193Z,102004.94
2023-05-21T02:47:38.200Z,102015.59
2023-05-21T02:50:06.979Z,102018.13
2023-05-21T02:52:34.260Z,101981.53
2023-05-21T02:55:01.310Z,102011.06
2023-05-21T02:57:27.942Z,102011.91
2023-05-21T02:59:54.621Z,102014.69
2023-05-21T03:02:21.545Z,102012.28
2023-05-21T03:04:48.929Z,102009.88
2023-05-21T03:07:18.058Z,102005.25
2023-05-21T03:09:44.826Z,101995.50
2023-05-21T03:12:11.809Z,101966.91
2023-05-21T03:14:38.768Z,101978.63
2023-05-21T03:17:08.404Z,102008.75
2023-05-21T03:19:36.416Z,102013.22
2023-05-21T03:22:06.747Z,102020.50
2023-05-21T03:24:33.568Z,102004.44
2023-05-21T03:27:01.504Z,102002.63
2023-05-21T03:29:28.574Z,101982.56
2023-05-21T03:31:55.812Z,101998.63
2023-05-21T03:34:23.286Z,101987.50
2023-05-21T03:36:50.199Z,101997.41
2023-05-21T03:39:17.177Z,101985.34
2023-05-21T03:41:43.841Z,101982.47
2023-05-21T03:44:10.501Z,102006.16
2023-05-21T03:46:37.299Z,101974.97
2023-05-21T03:49:03.895Z,101999.41
2023-05-21T03:51:31.775Z,101986.94
2023-05-21T03:53:59.640Z,102011.50
2023-05-21T03:56:26.446Z,102003.63
2023-05-21T03:58:53.234Z,102007.13
2023-05-21T04:01:20.005Z,101987.53
2023-05-21T04:03:47.210Z,102002.66
2023-05-21T04:06:14.209Z,101939.69
2023-05-21T04:08:41.094Z,101986.09
2023-05-21T04:11:07.716Z,102012.06
2023-05-21T04:13:34.496Z,102005.19
2023-05-21T04:16:01.342Z,102010.75
2023-05-21T04:18:28.192Z,101995.50
2023-05-21T04:20:54.905Z,102010.47
2023-05-21T04:23:23.802Z,102029.34
2023-05-21T04:25:51.049Z,102027.63
2023-05-21T04:28:20.137Z,102023.31
2023-05-21T04:30:47.956Z,101988.22
2023-05-21T04:33:18.198Z,101983.41
2023-05-21T04:35:47.402Z,102025.97
2023-05-21T04:38:14.281Z,102000.72
2023-05-21T04:40:41.926Z,102022.47
2023-05-21T04:43:09.030Z,102020.66
2023-05-21T04:45:36.067Z,101991.13
2023-05-21T04:48:03.051Z,101999.78
2023-05-21T04:50:33.743Z,101997.09
2023-05-21T04:53:00.967Z,102014.63
2023-05-21T04:55:27.633Z,102002.97
2023-05-21T04:57:54.415Z,101986.78
2023-05-21T05:00:21.732Z,101988.75
2023-05-21T05:02:48.497Z,101988.94
2023-05-21T05:05:15.297Z,102002.31
2023-05-21T05:07:42.035Z,101991.69
2023-05-21T05:10:08.842Z,102002.84
2023-05-21T05:12:35.686Z,101983.22
2023-05-21T05:15:02.399Z,101992.56
2023-05-21T05:17:29.187Z,102000.00
2023-05-21T05:19:56.211Z,101991.25
2023-05-21T05:22:22.966Z,101990.13
2023-05-21T05:24:49.588Z,102003.66
2023-05-21T05:27:16.338Z,102002.78
2023-05-21T05:29:43.068Z,102008.41
2023-05-21T05:32:10.009Z,101975.22
2023-05-21T05:34:37.740Z,101981.13
2023-05-21T05:37:05.158Z,101996.19
2023-05-21T05:39:31.709Z,101996.31
2023-05-21T05:41:58.620Z,101987.75
2023-05-21T05:44:25.525Z,101986.47
2023-05-21T05:46:52.148Z,101979.16
2023-05-21T05:49:18.966Z,101980.28
2023-05-21T05:51:45.835Z,101988.84
2023-05-21T05:54:12.482Z,101990.81
2023-05-21T05:56:39.335Z,101981.66
2023-05-21T05:59:06.255Z,101988.53
2023-05-21T06:01:32.934Z,101981.03
2023-05-21T06:03:59.712Z,101973.69
2023-05-21T06:06:26.740Z,101979.63
2023-05-21T06:08:53.671Z,101977.13
2023-05-21T06:11:21.615Z,101989.25
2023-05-21T06:13:48.396Z,101992.06
2023-05-21T06:16:16.017Z,101988.38
2023-05-21T06:18:42.920Z,101988.91
2023-05-21T06:21:10.698Z,101946.34
2023-05-21T06:23:37.852Z,101966.53
2023-05-21T06:26:05.155Z,101982.72
2023-05-21T06:28:32.207Z,101989.00
2023-05-21T06:30:58.837Z,101971.72
2023-05-21T06:33:27.465Z,101974.72
2023-05-21T06:35:54.287Z,101979.22
2023-05-21T06:38:21.394Z,101984.88
2023-05-21T06:40:49.496Z,101971.19
2023-05-21T06:43:16.195Z,101971.63
2023-05-21T06:45:42.835Z,101977.81
2023-05-21T06:48:09.711Z,101971.38
2023-05-21T06:50:36.497Z,101907.53
2023-05-21T06:53:03.282Z,101912.63
2023-05-21T06:55:30.040Z,101969.44
2023-05-21T06:57:58.110Z,101962.25
2023-05-21T07:00:25.089Z,101946.91
2023-05-21T07:02:51.931Z,101943.97
2023-05-21T07:05:18.928Z,101968.91
2023-05-21T07:07:45.496Z,101957.63
2023-05-21T07:10:12.843Z,101943.88
2023-05-21T07:12:41.587Z,101955.69
2023-05-21T07:15:09.242Z,101958.81
2023-05-21T07:17:35.989Z,101941.94
2023-05-21T07:20:02.830Z,101951.75
2023-05-21T07:22:29.459Z,101953.09
2023-05-21T07:24:56.178Z,101965.34
2023-05-21T07:27:25.947Z,101945.06
2023-05-21T07:29:52.972Z,101934.19
2023-05-21T07:32:19.714Z,101930.09
2023-05-21T07:34:47.228Z,101916.56
2023-05-21T07:37:14.197Z,101930.47
2023-05-21T07:39:40.932Z,101904.84
2023-05-21T07:42:07.716Z,101931.44
2023-05-21T07:44:34.334Z,101951.78
2023-05-21T07:47:01.153Z,101950.72
2023-05-21T07:49:27.875Z,101957.09
2023-05-21T07:51:54.563Z,101930.53
2023-05-21T07:54:21.355Z,101952.13
2023-05-21T07:56:48.119Z,101858.72
2023-05-21T07:59:17.104Z,101940.00
2023-05-21T08:01:44.276Z,101948.47
2023-05-21T08:06:37.899Z,101938.03
2023-05-21T08:09:06.252Z,101915.50
2023-05-21T08:11:33.249Z,101919.41
2023-05-21T08:14:00.368Z,101922.47
2023-05-21T08:16:27.204Z,101903.91
2023-05-21T08:18:54.027Z,101922.78
2023-05-21T08:21:20.955Z,101913.66
2023-05-21T08:23:47.653Z,101943.94
2023-05-21T08:26:16.653Z,101916.97
2023-05-21T08:28:43.552Z,101932.25
2023-05-21T08:31:10.275Z,101935.78
2023-05-21T08:33:38.545Z,101940.50
2023-05-21T08:36:06.665Z,101946.94
2023-05-21T08:38:34.175Z,101937.97
2023-05-21T08:41:00.988Z,101945.75
2023-05-21T08:43:28.710Z,101950.75
2023-05-21T08:45:57.367Z,101939.69
2023-05-21T08:48:24.685Z,101928.16
2023-05-21T08:50:55.197Z,101941.88
2023-05-21T08:53:28.230Z,101946.66
2023-05-21T08:55:56.594Z,101944.31
2023-05-21T08:58:23.652Z,101943.41
2023-05-21T09:00:50.758Z,101942.22
2023-05-21T09:03:18.037Z,101948.00
2023-05-21T09:05:45.870Z,101941.94
2023-05-21T09:08:24.396Z,101943.75
2023-05-21T09:10:52.417Z,101945.09
2023-05-21T09:13:20.588Z,101944.75
2023-05-21T09:15:48.337Z,101941.38
2023-05-21T09:18:15.246Z,101950.78
2023-05-21T09:20:42.131Z,101944.63
2023-05-21T09:23:17.362Z,101935.25
2023-05-21T09:25:48.191Z,101870.34
2023-05-21T09:28:16.274Z,101936.22
2023-05-21T09:30:47.943Z,101939.75
2023-05-21T09:33:29.494Z,101934.34
2023-05-21T09:35:56.649Z,101908.38
2023-05-21T09:38:24.962Z,101925.06
2023-05-21T09:40:54.792Z,101925.06
2023-05-21T09:43:21.733Z,101901.34
2023-05-21T09:45:57.314Z,101929.72
2023-05-21T09:48:35.363Z,101929.44
2023-05-21T09:51:09.283Z,101929.81
2023-05-21T09:53:36.013Z,101921.41
2023-05-21T09:56:03.911Z,101903.28
2023-05-21T09:58:30.612Z,101926.50
2023-05-21T10:00:57.275Z,101917.72
2023-05-21T10:03:28.512Z,101921.91
2023-05-21T10:05:56.844Z,101914.00
2023-05-21T10:08:26.853Z,101916.69
2023-05-21T10:10:53.565Z,101896.56
2023-05-21T10:13:23.456Z,101900.28
2023-05-21T10:15:55.811Z,101912.44
2023-05-21T10:18:24.556Z,101906.06
2023-05-21T10:20:52.213Z,101897.31
2023-05-21T10:23:19.166Z,101908.75
2023-05-21T10:25:47.292Z,101885.22
2023-05-21T10:28:17.434Z,101898.00
2023-05-21T10:30:44.701Z,101899.00
2023-05-21T10:33:16.398Z,101896.16
2023-05-21T10:35:46.835Z,101874.78
2023-05-21T10:38:14.506Z,101888.25
2023-05-21T10:40:41.367Z,101853.59
2023-05-21T10:43:23.289Z,101884.19
2023-05-21T10:45:49.979Z,101890.22
2023-05-21T10:48:33.725Z,101881.09
2023-05-21T10:51:06.568Z,101880.09
2023-05-21T10:54:01.217Z,101871.38
2023-05-21T10:56:43.669Z,101878.41
2023-05-21T10:59:22.387Z,101872.69
2023-05-21T11:01:54.352Z,101867.59
2023-05-21T11:04:27.472Z,101841.75
2023-05-21T11:06:54.269Z,101851.78
2023-05-21T11:09:20.931Z,101872.28
2023-05-21T11:11:52.755Z,101858.16
2023-05-21T11:14:27.228Z,101860.81
2023-05-21T11:16:54.832Z,101830.91
2023-05-21T11:19:21.569Z,101842.34
2023-05-21T11:21:51.472Z,101823.38
2023-05-21T11:24:21.895Z,101836.84
2023-05-21T11:26:48.486Z,101846.91
2023-05-21T11:29:15.195Z,101830.97
2023-05-21T11:32:02.762Z,101819.16
2023-05-21T11:34:59.579Z,101837.16
2023-05-21T11:37:29.397Z,101839.00
2023-05-21T11:39:58.153Z,101813.31
2023-05-21T11:42:31.740Z,101842.56
2023-05-21T11:44:59.473Z,101837.50
2023-05-21T11:47:27.806Z,101784.44
2023-05-21T11:49:55.816Z,101835.00
2023-05-21T11:52:23.284Z,101838.25
2023-05-21T11:54:58.005Z,101836.06
2023-05-21T11:57:30.762Z,101810.00
2023-05-21T12:00:01.505Z,101826.78
2023-05-21T12:02:32.855Z,101822.41
2023-05-21T12:05:00.553Z,101817.88
2023-05-21T12:07:31.380Z,101800.78
2023-05-21T12:09:58.583Z,101813.69
2023-05-21T12:12:33.042Z,101805.50
2023-05-21T12:15:07.118Z,101816.25
2023-05-21T12:17:34.273Z,101813.19
2023-05-21T12:20:02.172Z,101814.59
2023-05-21T12:22:29.941Z,101801.94
2023-05-21T12:24:58.332Z,101776.03
2023-05-21T12:27:25.178Z,101787.66
2023-05-21T12:29:53.258Z,101786.16
2023-05-21T12:32:21.537Z,101824.06
2023-05-21T12:34:49.756Z,101832.13
2023-05-21T12:37:26.927Z,101826.47
2023-05-21T12:40:01.285Z,101828.63
2023-05-21T12:42:35.045Z,101820.88
2023-05-21T12:45:08.863Z,101821.50
2023-05-21T12:47:36.358Z,101775.81
2023-05-21T12:50:11.851Z,101822.56
2023-05-21T12:52:41.037Z,101814.75
2023-05-21T12:55:10.650Z,101804.34
2023-05-21T12:57:40.751Z,101823.56
2023-05-21T13:00:09.289Z,101812.13
2023-05-21T13:02:44.442Z,101807.22
2023-05-21T13:05:20.158Z,101820.16
2023-05-21T13:07:48.045Z,101813.44
2023-05-21T13:10:18.449Z,101800.38
2023-05-21T13:12:45.718Z,101796.84
2023-05-21T13:15:12.624Z,101805.38
2023-05-21T13:17:39.362Z,101789.25
2023-05-21T13:20:09.550Z,101808.63
2023-05-21T13:22:43.701Z,101787.06
2023-05-21T13:25:11.795Z,101791.06
2023-05-21T13:27:39.741Z,101787.19
2023-05-21T13:30:07.405Z,101797.16
2023-05-21T13:32:34.622Z,101780.09
2023-05-21T13:35:01.470Z,101782.06
2023-05-21T13:37:28.216Z,101768.75
2023-05-21T13:39:55.092Z,101769.94
2023-05-21T13:42:21.773Z,101765.63
2023-05-21T13:44:49.293Z,101765.28
2023-05-21T13:47:16.460Z,101774.25
2023-05-21T13:49:43.109Z,101772.13
2023-05-21T13:52:10.234Z,101762.13
2023-05-21T13:54:37.092Z,101753.66
2023-05-21T13:57:04.634Z,101721.84
2023-05-21T13:59:33.341Z,101748.31
2023-05-21T14:02:01.018Z,101747.41
2023-05-21T14:04:28.002Z,101755.06
2023-05-21T14:06:54.686Z,101712.06
2023-05-21T14:09:23.460Z,101753.50
2023-05-21T14:11:50.077Z,101749.97
2023-05-21T14:14:19.144Z,101748.75
2023-05-21T14:16:49.772Z,101749.22
2023-05-21T14:19:16.980Z,101741.41
2023-05-21T14:21:43.933Z,101750.47
2023-05-21T14:24:10.851Z,101745.50
2023-05-21T14:26:40.445Z,101736.56
2023-05-21T14:29:07.258Z,101730.91
2023-05-21T14:31:34.262Z,101712.06
2023-05-21T14:34:02.939Z,101704.56
2023-05-21T14:36:30.115Z,101726.06
2023-05-21T14:38:57.177Z,101738.72
2023-05-21T14:41:27.740Z,101737.28
2023-05-21T14:43:54.934Z,101720.53
2023-05-21T14:46:21.915Z,101740.69
2023-05-21T14:48:48.687Z,101708.97
2023-05-21T14:51:15.671Z,101743.13
2023-05-21T14:53:42.518Z,101735.56
2023-05-21T14:56:09.150Z,101706.84
2023-05-21T14:58:35.838Z,101719.16
2023-05-21T15:01:04.463Z,101723.13
2023-05-21T15:03:31.380Z,101710.78
2023-05-21T15:05:58.701Z,101724.03
2023-05-21T15:08:26.023Z,101706.38
2023-05-21T15:10:52.754Z,101725.25
2023-05-21T15:13:19.496Z,101721.94
2023-05-21T15:15:46.394Z,101720.69
2023-05-21T15:18:13.164Z,101711.53
2023-05-21T15:20:39.884Z,101710.78
2023-05-21T15:23:16.694Z,101709.34
2023-05-21T15:25:44.761Z,101696.69
2023-05-21T15:28:12.391Z,101710.72
2023-05-21T15:30:39.331Z,101719.75
2023-05-21T15:33:06.570Z,101699.25
2023-05-21T15:35:35.222Z,101706.72
2023-05-21T15:38:02.004Z,101699.91
2023-05-21T15:40:28.721Z,101718.31
2023-05-21T15:42:55.550Z,101719.38
2023-05-21T15:45:22.190Z,101701.41
2023-05-21T15:47:48.839Z,101713.56
2023-05-21T15:50:15.787Z,101690.19
2023-05-21T15:52:42.797Z,101709.53
2023-05-21T15:55:10.029Z,101716.38
2023-05-21T15:57:36.993Z,101690.38
2023-05-21T16:00:05.042Z,101707.41
2023-05-21T16:02:32.068Z,101697.38
2023-05-21T16:04:58.950Z,101678.41
2023-05-21T16:07:25.868Z,101673.19
2023-05-21T16:09:52.542Z,101690.00
2023-05-21T16:12:19.572Z,101675.94
2023-05-21T16:14:49.948Z,101688.97
2023-05-21T16:17:16.834Z,101697.97
2023-05-21T16:19:43.768Z,101696.00
2023-05-21T16:22:11.045Z,101647.25
2023-05-21T16:24:37.923Z,101693.47
2023-05-21T16:27:05.159Z,101689.34
2023-05-21T16:29:31.989Z,101672.03
2023-05-21T16:31:58.719Z,101687.31
2023-05-21T16:34:25.796Z,101679.22
2023-05-21T16:36:52.533Z,101609.56
2023-05-21T16:39:19.398Z,101677.53
2023-05-21T16:41:46.290Z,101679.88
2023-05-21T16:44:13.053Z,101659.44
2023-05-21T16:46:39.972Z,101680.53
2023-05-21T16:49:07.263Z,101665.28
2023-05-21T16:51:34.265Z,101672.63
2023-05-21T16:54:02.405Z,101663.03
2023-05-21T16:56:29.241Z,101653.84
2023-05-21T16:58:55.932Z,101668.06
2023-05-21T17:01:22.892Z,101667.59
2023-05-21T17:03:49.962Z,101631.69
2023-05-21T17:06:16.916Z,101658.06
2023-05-21T17:08:43.559Z,101604.03
2023-05-21T17:11:10.311Z,101662.41
2023-05-21T17:13:37.044Z,101660.28
2023-05-21T17:16:03.832Z,101657.59
2023-05-21T17:18:31.397Z,101651.97
2023-05-21T17:20:59.104Z,101664.66
2023-05-21T17:23:25.822Z,101666.31
2023-05-21T17:25:52.792Z,101634.91
2023-05-21T17:28:19.576Z,101650.84
2023-05-21T17:30:48.708Z,101649.19
2023-05-21T17:33:16.483Z,101659.63
2023-05-21T17:35:43.319Z,101661.28
2023-05-21T17:38:10.454Z,101636.69
2023-05-21T17:40:37.380Z,101655.69
2023-05-21T17:43:05.180Z,101653.94
2023-05-21T17:45:31.974Z,101659.72
2023-05-21T17:48:00.552Z,101665.50
2023-05-21T17:50:27.951Z,101658.81
2023-05-21T17:52:54.762Z,101665.81
2023-05-21T17:55:23.631Z,101655.84
2023-05-21T17:57:50.351Z,101669.53
2023-05-21T18:00:17.296Z,101665.75
2023-05-21T18:02:44.045Z,101669.72
2023-05-21T18:05:10.811Z,101666.47
2023-05-21T18:07:38.420Z,101671.41
2023-05-21T18:10:05.908Z,101657.00
2023-05-21T18:12:32.664Z,101660.72
2023-05-21T18:14:59.413Z,101663.97
2023-05-21T18:17:26.325Z,101653.84
2023-05-21T18:19:53.065Z,101675.50
2023-05-21T18:22:19.735Z,101641.94
2023-05-21T18:24:46.689Z,101684.53
2023-05-21T18:27:13.641Z,101664.44
2023-05-21T18:29:40.392Z,101689.56
2023-05-21T18:32:07.900Z,101671.97
2023-05-21T18:34:34.816Z,101676.16
2023-05-21T18:37:01.564Z,101675.59
2023-05-21T18:39:28.485Z,101657.53
2023-05-21T18:42:08.868Z,101676.34
2023-05-21T18:44:40.001Z,101672.88
2023-05-21T18:47:07.814Z,101680.13
2023-05-21T18:49:36.116Z,101676.47
2023-05-21T18:52:04.037Z,101674.16
2023-05-21T18:54:31.071Z,101650.38
2023-05-21T18:57:00.298Z,101665.19
2023-05-21T18:59:29.022Z,101677.94
2023-05-21T19:01:56.023Z,101667.88
2023-05-21T19:04:22.891Z,101668.91
2023-05-21T19:06:49.922Z,101654.38
2023-05-21T19:09:17.023Z,101668.97
2023-05-21T19:11:43.980Z,101642.88
2023-05-21T19:14:10.795Z,101655.81
2023-05-21T19:16:37.508Z,101662.69
2023-05-21T19:19:04.373Z,101672.81
2023-05-21T19:21:31.709Z,101666.47
2023-05-21T19:23:58.926Z,101660.97
2023-05-21T19:26:25.673Z,101663.00
2023-05-21T19:28:55.717Z,101657.50
2023-05-21T19:31:23.048Z,101666.25
2023-05-21T19:33:50.147Z,101676.63
2023-05-21T19:36:17.432Z,101665.41
2023-05-21T19:38:51.338Z,101666.59
2023-05-21T19:41:19.197Z,101669.78
2023-05-21T19:43:46.240Z,101619.16
2023-05-21T19:46:14.283Z,101675.69
2023-05-21T19:48:42.149Z,101621.06
2023-05-21T19:51:08.944Z,101671.00
2023-05-21T19:53:36.002Z,101651.88
2023-05-21T19:56:03.057Z,101669.69
2023-05-21T19:58:30.468Z,101665.00
2023-05-21T20:01:00.158Z,101650.75
2023-05-21T20:03:28.506Z,101639.00
2023-05-21T20:05:55.170Z,101660.31
2023-05-21T20:08:22.255Z,101592.31
2023-05-21T20:10:51.720Z,101674.81
2023-05-21T20:13:19.047Z,101645.91
2023-05-21T20:15:45.720Z,101641.25
2023-05-21T20:18:13.168Z,101643.66
2023-05-21T20:20:41.290Z,101645.66
2023-05-21T20:23:08.949Z,101647.00
2023-05-21T20:25:35.894Z,101641.00
2023-05-21T20:28:03.641Z,101631.66
2023-05-21T20:30:34.933Z,101644.56
2023-05-21T20:33:03.234Z,101646.94
2023-05-21T20:35:30.473Z,101625.97
2023-05-21T20:37:57.137Z,101653.16
2023-05-21T20:40:24.568Z,101646.97
2023-05-21T20:42:53.348Z,101657.56
2023-05-21T20:45:21.029Z,101644.50
2023-05-21T20:47:48.303Z,101647.69
2023-05-21T20:50:17.712Z,101646.16
2023-05-21T20:52:47.053Z,101647.19
2023-05-21T20:55:14.928Z,101632.75
2023-05-21T20:57:42.126Z,101643.50
2023-05-21T21:00:11.831Z,101647.69
2023-05-21T21:02:38.977Z,101638.13
2023-05-21T21:05:06.210Z,101628.06
2023-05-21T21:07:34.245Z,101637.47
2023-05-21T21:10:01.599Z,101613.34
2023-05-21T21:12:28.461Z,101611.66
2023-05-21T21:14:55.830Z,101636.97
2023-05-21T21:17:23.068Z,101628.94
2023-05-21T21:19:49.805Z,101629.09
2023-05-21T21:22:17.204Z,101639.53
2023-05-21T21:24:44.682Z,101630.13
2023-05-21T21:27:11.330Z,101602.63
2023-05-21T21:29:38.352Z,101613.69
2023-05-21T21:32:05.769Z,101618.88
2023-05-21T21:34:32.510Z,101630.47
2023-05-21T21:36:59.145Z,101639.38
2023-05-21T21:39:26.999Z,101616.03
2023-05-21T21:41:53.759Z,101605.47
2023-05-21T21:44:20.650Z,101627.63
2023-05-21T21:46:47.579Z,101628.63
2023-05-21T21:49:17.195Z,101601.09
2023-05-21T21:51:44.725Z,101615.38
2023-05-21T21:54:11.910Z,101623.91
2023-05-21T21:56:38.748Z,101621.75
2023-05-21T21:59:05.736Z,101635.19
2023-05-21T22:01:32.887Z,101620.09
2023-05-21T22:03:59.719Z,101633.19
2023-05-21T22:06:27.669Z,101627.50
2023-05-21T22:08:55.137Z,101639.56
2023-05-21T22:11:21.999Z,101641.25
2023-05-21T22:13:48.935Z,101627.13
2023-05-21T22:16:16.183Z,101624.13
2023-05-21T22:18:42.915Z,101634.50
2023-05-21T22:21:10.718Z,101634.88
2023-05-21T22:23:38.582Z,101618.25
2023-05-21T22:26:07.361Z,101618.09
2023-05-21T22:28:34.125Z,101610.03
2023-05-21T22:31:01.536Z,101616.06
2023-05-21T22:33:29.366Z,101612.06
2023-05-21T22:35:57.070Z,101584.16
2023-05-21T22:38:24.453Z,101588.84
2023-05-21T22:40:51.509Z,101605.13
2023-05-21T22:43:18.280Z,101611.03
2023-05-21T22:45:45.199Z,101600.94
2023-05-21T22:48:11.885Z,101582.81
2023-05-21T22:50:39.048Z,101594.72
2023-05-21T22:53:07.002Z,101598.25
2023-05-21T22:55:33.678Z,101517.19
2023-05-21T22:58:00.317Z,101580.47
2023-05-21T23:00:27.582Z,101590.34
2023-05-21T23:02:54.717Z,101580.63
2023-05-21T23:05:22.206Z,101597.88
2023-05-21T23:07:49.215Z,101595.19
2023-05-21T23:10:15.920Z,101576.06
2023-05-21T23:12:42.623Z,101600.22
2023-05-21T23:15:09.972Z,101601.22
2023-05-21T23:17:37.252Z,101607.59
2023-05-21T23:20:04.711Z,101580.72
2023-05-21T23:22:31.750Z,101593.00
2023-05-21T23:24:58.478Z,101599.22
2023-05-21T23:27:25.144Z,101593.50
2023-05-21T23:29:51.955Z,101606.56
2023-05-21T23:32:18.678Z,101608.25
2023-05-21T23:34:45.285Z,101613.63
2023-05-21T23:37:12.427Z,101599.47
2023-05-21T23:39:39.082Z,101596.81
2023-05-21T23:42:06.302Z,101601.88
2023-05-21T23:44:33.272Z,101643.28
2023-05-21T23:46:59.976Z,101627.88
2023-05-21T23:49:26.600Z,101579.00
2023-05-21T23:51:53.533Z,101649.84
2023-05-21T23:54:20.206Z,101669.97
2023-05-21T23:56:46.959Z,101630.00
2023-05-21T23:59:15.653Z,101632.56
